Kezdőlap
METAR-TAF:

METAR-TAF

Repülőterek :

Lamoni Municipal Airport

Lamoni, Iowa, Amerikai Egyesült Államok

földrajzi szélesség: 40-37-50N, földrajzi hosszúság: 093-54-03W, magasság: 344 m

Jelenlegi meteorológiai megfigyelések

A jelentés 8 perccel ezelõtt készült, 08:53 UTC
Dél-délnyugati szél 8 kt
Hőmérséklet -5°C
Páratartalom 68%
Légköri nyomás 1020 hPa
Látótávolság: 16.1 km
Szórványos felhőzet 10000 lábon

METAR: KLWD 270853Z AUTO 20008KT 10SM SCT100 M05/M10 A3012 RMK AO2 SLP213 T10501100 58023

Idő: 03:01 (09:01 UTC)


TAF: hiányzik

Meteorológiai megfigyelések és előrejelzések több, mint 4000 repülőtéren (METAR és TAF jelentéseket).

A térképen piros és sárga pontok jelzik az elérhető meteorológiai állomásokat.

Mozgassa az egeret a pont fölött, hogy megjelenjen az állomás neve.

Azután kattintson az időjárási megfigyelések és előrejelzések megtekintéséhez.

A térkép megváltoztatása: kattintson a fekete keresztel jelölt zöld gombra ráközelítéshez, a vonallal jelölt zöld gombra távolításhoz, vagy a zöld nyilakra a szomszédos térképek eléréséhez.


METAR-TAF: